This is the latest recevied weather packets stored in our database for station/object KM8V-8. If no packets are shown the sender has not sent any weather packets the latest 10 day(s).
| Time | Temp. | Humidity | Pressure | Rain* | Wind** | Luminosity | Snow |
|---|---|---|---|---|---|---|---|
| 1777360819 | 15.56° C | 92% | 1010.3 hPa | 2.54 mm | - | 0 W/m² | - |
| 1777360521 | 15.56° C | 92% | 1010.4 hPa | 2.54 mm | - | 0 W/m² | - |
| 1777360221 | 15.56° C | 91% | 1010.6 hPa | 2.54 mm | - | 0 W/m² | - |
| 1777359922 | 16.11° C | 90% | 1010.7 hPa | 2.54 mm | - | 0 W/m² | - |
| 1777359623 | 16.11° C | 88% | 1010.8 hPa | 2.29 mm | - | 0 W/m² | - |
| 1777359323 | 16.67° C | 84% | 1010.8 hPa | 2.03 mm | - | 0 W/m² | - |
| 1777359022 | 17.22° C | 79% | 1010.9 hPa | 1.52 mm | - | 0 W/m² | - |
| 1777358719 | 18.33° C | 72% | 1010.9 hPa | 1.02 mm | - | 0 W/m² | - |
| 1777358128 | 19.44° C | 62% | 1010.2 hPa | 0.25 mm | - | 0 W/m² | - |
| 1777357816 | 20° C | 57% | 1010.1 hPa | 0.25 mm | - | 0 W/m² | - |
| 1777357517 | 20° C | 55% | 1009.9 hPa | 0 mm | - | 0 W/m² | - |
| 1777357217 | 20° C | 54% | 1009.8 hPa | 0 mm | - | 0 W/m² | - |
| 1777356917 | 19.44° C | 54% | 1009.6 hPa | 0 mm | - | 0 W/m² | - |
| 1777356620 | 19.44° C | 54% | 1009.5 hPa | 0 mm | - | 0 W/m² | - |
| 1777356316 | 19.44° C | 53% | 1009.6 hPa | 0 mm | - | 0 W/m² | - |
| 1777356018 | 19.44° C | 54% | 1009.5 hPa | 0 mm | - | 0 W/m² | - |
| 1777355720 | 19.44° C | 53% | 1009.6 hPa | 0 mm | - | 0 W/m² | - |
| 1777355420 | 19.44° C | 51% | 1009.6 hPa | 0 mm | - | 0 W/m² | - |
| 1777355118 | 19.44° C | 50% | 1009.7 hPa | 0 mm | - | 0 W/m² | - |
| 1777354820 | 19.44° C | 50% | 1009.6 hPa | 0 mm | - | 0 W/m² | - |
| 1777354520 | 19.44° C | 50% | 1009.5 hPa | 0 mm | - | 0 W/m² | - |
| 1777354220 | 19.44° C | 49% | 1009.4 hPa | 0 mm | - | 0 W/m² | - |
| 1777353921 | 19.44° C | 50% | 1009.2 hPa | 0 mm | - | 0 W/m² | - |
| 1777353621 | 20° C | 49% | 1009 hPa | 0 mm | - | 0 W/m² | - |
| 1777353320 | 19.44° C | 48% | 1009.1 hPa | 0 mm | - | 0 W/m² | - |
* Rain latest hour (hover to see other rain measurements)
** Current wind speed in m/s (hover to see current wind gust speed)